createdAt,value
2023-04-15T00:00:34.260Z,9.35
2023-04-15T00:01:37.286Z,11.70
2023-04-15T00:02:39.154Z,12.07
2023-04-15T00:03:42.162Z,11.23
2023-04-15T00:04:44.400Z,12.35
2023-04-15T00:05:47.242Z,13.10
2023-04-15T00:06:53.169Z,12.18
2023-04-15T00:07:55.715Z,13.27
2023-04-15T00:08:57.246Z,12.63
2023-04-15T00:10:01.154Z,14.13
2023-04-15T00:11:03.150Z,15.27
2023-04-15T00:12:06.407Z,15.20
2023-04-15T00:13:08.015Z,16.52
2023-04-15T00:14:10.671Z,16.05
2023-04-15T00:15:12.611Z,15.80
2023-04-15T00:16:15.794Z,15.43
2023-04-15T00:17:17.956Z,15.63
2023-04-15T00:18:21.164Z,15.88
2023-04-15T00:19:22.934Z,20.92
2023-04-15T00:20:25.745Z,17.13
2023-04-15T00:21:29.009Z,17.35
2023-04-15T00:22:32.420Z,17.70
2023-04-15T00:23:33.996Z,17.55
2023-04-15T00:24:36.928Z,17.00
2023-04-15T00:25:40.448Z,16.33
2023-04-15T00:26:42.961Z,17.65
2023-04-15T00:27:44.469Z,17.45
2023-04-15T00:28:46.926Z,17.77
2023-04-15T00:29:48.448Z,16.00
2023-04-15T00:30:51.647Z,18.23
2023-04-15T00:31:53.322Z,15.73
2023-04-15T00:32:55.862Z,15.38
2023-04-15T00:33:58.502Z,14.73
2023-04-15T00:35:02.254Z,13.82
2023-04-15T00:36:04.406Z,14.27
2023-04-15T00:37:06.931Z,13.90
2023-04-15T00:38:08.678Z,13.60
2023-04-15T00:39:11.294Z,13.23
2023-04-15T00:40:13.748Z,12.55
2023-04-15T00:41:18.143Z,14.45
2023-04-15T00:42:21.700Z,13.60
2023-04-15T00:43:24.245Z,12.90
2023-04-15T00:44:27.112Z,13.43
2023-04-15T00:45:29.288Z,11.43
2023-04-15T00:46:32.602Z,11.60
2023-04-15T00:47:37.292Z,12.10
2023-04-15T00:48:39.925Z,12.68
2023-04-15T00:49:42.162Z,11.00
2023-04-15T00:50:44.644Z,10.75
2023-04-15T00:51:46.501Z,10.90
2023-04-15T00:52:49.103Z,10.55
2023-04-15T00:53:51.900Z,10.75
2023-04-15T00:54:54.495Z,11.35
2023-04-15T00:55:56.216Z,11.77
2023-04-15T00:57:00.722Z,10.25
2023-04-15T00:58:02.314Z,11.68
2023-04-15T00:59:05.538Z,11.90
2023-04-15T01:00:09.037Z,11.93
2023-04-15T01:01:11.604Z,13.38
2023-04-15T01:02:13.334Z,12.27
2023-04-15T01:03:16.477Z,13.93
2023-04-15T01:04:18.259Z,13.43
2023-04-15T01:05:21.144Z,14.10
2023-04-15T01:06:23.804Z,14.55
2023-04-15T01:07:26.405Z,14.90
2023-04-15T01:08:28.532Z,14.63
2023-04-15T01:09:31.059Z,17.77
2023-04-15T01:10:33.515Z,17.42
2023-04-15T01:11:36.583Z,16.50
2023-04-15T01:12:40.042Z,17.77
2023-04-15T01:13:42.723Z,15.80
2023-04-15T01:14:45.925Z,20.30
2023-04-15T01:15:48.545Z,17.88
2023-04-15T01:16:50.167Z,19.02
2023-04-15T01:17:52.872Z,17.30
2023-04-15T01:18:54.957Z,17.88
2023-04-15T01:19:58.032Z,18.33
2023-04-15T01:21:01.751Z,14.35
2023-04-15T01:22:05.462Z,14.45
2023-04-15T01:23:07.384Z,15.32
2023-04-15T01:24:11.807Z,11.45
2023-04-15T01:25:18.520Z,9.40
2023-04-15T01:26:23.398Z,10.07
2023-04-15T01:27:25.538Z,10.00
2023-04-15T01:28:28.464Z,9.52
2023-04-15T01:29:30.926Z,10.25
2023-04-15T01:30:35.692Z,10.25
2023-04-15T01:31:37.600Z,10.38
2023-04-15T01:32:40.561Z,10.23
2023-04-15T01:33:43.312Z,10.25
2023-04-15T01:34:45.862Z,9.82
2023-04-15T01:35:47.830Z,11.13
2023-04-15T01:36:50.406Z,8.93
2023-04-15T01:37:52.506Z,9.57
2023-04-15T01:38:55.299Z,9.68
2023-04-15T01:39:57.392Z,9.77
2023-04-15T01:41:00.266Z,8.93
2023-04-15T01:42:04.125Z,10.85
2023-04-15T01:43:06.592Z,9.57
2023-04-15T01:44:08.342Z,9.07
2023-04-15T01:45:11.665Z,10.32
2023-04-15T01:46:13.221Z,9.27
2023-04-15T01:47:16.000Z,8.60
2023-04-15T01:48:17.918Z,8.73
2023-04-15T01:49:20.481Z,9.20
2023-04-15T01:50:22.049Z,8.00
2023-04-15T01:51:24.602Z,8.38
2023-04-15T01:52:26.185Z,8.32
2023-04-15T01:53:29.408Z,7.47
2023-04-15T01:54:31.437Z,7.38
2023-04-15T01:55:34.170Z,7.10
2023-04-15T01:56:35.712Z,7.70
2023-04-15T01:57:39.843Z,6.80
2023-04-15T01:58:41.731Z,8.13
2023-04-15T01:59:44.480Z,7.85
2023-04-15T02:00:46.271Z,7.15
2023-04-15T02:01:48.753Z,7.35
2023-04-15T02:02:50.622Z,6.50
2023-04-15T02:03:53.305Z,6.95
2023-04-15T02:04:54.908Z,6.85
2023-04-15T02:05:57.657Z,6.25
2023-04-15T02:06:59.126Z,6.30
2023-04-15T02:08:01.687Z,6.10
2023-04-15T02:09:04.343Z,6.20
2023-04-15T02:10:07.750Z,5.88
2023-04-15T02:11:09.461Z,7.53
2023-04-15T02:12:11.901Z,6.43
2023-04-15T02:13:14.855Z,6.03
2023-04-15T02:14:17.378Z,6.20
2023-04-15T02:15:18.922Z,6.03
2023-04-15T02:16:21.777Z,6.43
2023-04-15T02:17:23.446Z,5.80
2023-04-15T02:18:26.410Z,5.85
2023-04-15T02:19:27.950Z,6.10
2023-04-15T02:20:32.106Z,5.80
2023-04-15T02:21:35.599Z,5.68
2023-04-15T02:22:38.253Z,6.15
2023-04-15T02:23:39.793Z,5.32
2023-04-15T02:24:42.308Z,5.60
2023-04-15T02:25:53.242Z,5.07
2023-04-15T02:26:56.451Z,4.63
2023-04-15T02:27:59.156Z,4.97
2023-04-15T02:29:02.272Z,4.80
2023-04-15T02:30:05.614Z,4.90
2023-04-15T02:31:08.132Z,5.18
2023-04-15T02:32:11.722Z,4.63
2023-04-15T02:33:13.420Z,5.22
2023-04-15T02:34:15.925Z,5.10
2023-04-15T02:35:19.792Z,5.13
2023-04-15T02:36:23.940Z,5.65
2023-04-15T02:37:27.813Z,7.88
2023-04-15T02:38:31.894Z,6.68
2023-04-15T02:39:33.830Z,6.35
2023-04-15T02:40:36.348Z,6.28
2023-04-15T02:41:37.858Z,6.95
2023-04-15T02:42:40.443Z,6.80
2023-04-15T02:43:42.012Z,7.15
2023-04-15T02:44:46.019Z,6.20
2023-04-15T02:45:48.414Z,6.95
2023-04-15T02:46:52.672Z,6.40
2023-04-15T02:47:54.634Z,6.80
2023-04-15T02:48:57.199Z,6.47
2023-04-15T02:50:00.485Z,7.00
2023-04-15T02:51:12.838Z,7.28
2023-04-15T02:52:14.462Z,6.75
2023-04-15T02:53:17.551Z,7.38
2023-04-15T02:54:20.008Z,6.88
2023-04-15T02:55:22.723Z,6.30
2023-04-15T02:56:24.324Z,5.68
2023-04-15T02:57:27.026Z,6.15
2023-04-15T02:58:28.594Z,6.45
2023-04-15T02:59:31.254Z,6.57
2023-04-15T03:00:34.153Z,6.20
2023-04-15T03:01:36.802Z,6.68
2023-04-15T03:02:39.884Z,6.43
2023-04-15T03:03:42.574Z,6.03
2023-04-15T03:04:44.170Z,6.18
2023-04-15T03:05:46.636Z,6.60
2023-04-15T03:06:48.167Z,6.30
2023-04-15T03:07:51.058Z,11.52
2023-04-15T03:08:52.648Z,7.57
2023-04-15T03:09:55.317Z,6.40
2023-04-15T03:11:00.663Z,6.60
2023-04-15T03:12:03.160Z,6.32
2023-04-15T03:13:04.784Z,6.68
2023-04-15T03:14:07.377Z,6.63
2023-04-15T03:15:10.534Z,6.72
2023-04-15T03:16:14.459Z,6.53
2023-04-15T03:17:16.444Z,6.65
2023-04-15T03:18:18.968Z,6.93
2023-04-15T03:19:20.604Z,7.55
2023-04-15T03:20:23.538Z,6.30
2023-04-15T03:21:25.173Z,7.05
2023-04-15T03:22:27.616Z,6.05
2023-04-15T03:23:30.807Z,6.55
2023-04-15T03:24:33.304Z,6.72
2023-04-15T03:25:37.353Z,6.50
2023-04-15T03:26:39.813Z,7.57
2023-04-15T03:27:42.005Z,6.18
2023-04-15T03:28:44.945Z,7.38
2023-04-15T03:29:46.516Z,6.40
2023-04-15T03:30:49.037Z,7.43
2023-04-15T03:31:52.805Z,7.15
2023-04-15T03:32:55.445Z,8.65
2023-04-15T03:33:57.039Z,6.97
2023-04-15T03:34:59.760Z,6.90
2023-04-15T03:36:01.480Z,6.93
2023-04-15T03:37:03.940Z,7.32
2023-04-15T03:38:05.731Z,7.00
2023-04-15T03:39:08.741Z,6.78
2023-04-15T03:40:11.148Z,7.00
2023-04-15T03:41:13.912Z,6.20
2023-04-15T03:42:15.641Z,8.25
2023-04-15T03:43:18.159Z,6.97
2023-04-15T03:44:19.661Z,6.43
2023-04-15T03:45:22.172Z,7.40
2023-04-15T03:46:23.970Z,8.35
2023-04-15T03:47:27.944Z,7.03
2023-04-15T03:48:29.521Z,6.45
2023-04-15T03:49:32.077Z,6.78
2023-04-15T03:50:33.591Z,7.00
2023-04-15T03:51:36.315Z,7.88
2023-04-15T03:52:37.822Z,7.05
2023-04-15T03:53:40.372Z,6.97
2023-04-15T03:54:41.937Z,7.10
2023-04-15T03:55:44.729Z,6.90
2023-04-15T03:56:46.546Z,7.00
2023-04-15T03:57:49.137Z,6.65
2023-04-15T03:58:50.654Z,5.75
2023-04-15T03:59:53.183Z,7.47
2023-04-15T04:01:02.044Z,6.68
2023-04-15T04:02:04.509Z,6.18
2023-04-15T04:03:08.458Z,7.90
2023-04-15T04:04:11.609Z,6.03
2023-04-15T04:05:13.110Z,6.90
2023-04-15T04:06:16.853Z,6.15
2023-04-15T04:07:18.673Z,6.60
2023-04-15T04:08:22.040Z,7.25
2023-04-15T04:09:23.694Z,6.60
2023-04-15T04:10:26.255Z,7.75
2023-04-15T04:11:28.222Z,7.57
2023-04-15T04:12:30.727Z,6.40
2023-04-15T04:13:32.401Z,7.72
2023-04-15T04:14:34.852Z,6.80
2023-04-15T04:15:36.631Z,7.07
2023-04-15T04:16:39.102Z,6.75
2023-04-15T04:17:40.848Z,6.57
2023-04-15T04:18:44.701Z,6.72
2023-04-15T04:19:46.462Z,7.38
2023-04-15T04:20:48.972Z,7.25
2023-04-15T04:21:51.112Z,6.32
2023-04-15T04:22:53.628Z,7.18
2023-04-15T04:23:56.765Z,7.68
2023-04-15T04:25:00.534Z,6.53
2023-04-15T04:26:02.002Z,6.75
2023-04-15T04:27:04.723Z,7.47
2023-04-15T04:28:06.216Z,7.30
2023-04-15T04:29:09.288Z,7.07
2023-04-15T04:30:11.579Z,7.63
2023-04-15T04:31:14.253Z,7.75
2023-04-15T04:32:16.000Z,6.85
2023-04-15T04:33:18.633Z,6.85
2023-04-15T04:34:21.468Z,7.68
2023-04-15T04:35:23.934Z,7.53
2023-04-15T04:36:26.555Z,7.10
2023-04-15T04:37:29.073Z,8.48
2023-04-15T04:38:30.720Z,7.55
2023-04-15T04:39:33.505Z,6.97
2023-04-15T04:40:35.182Z,6.57
2023-04-15T04:41:37.655Z,6.93
2023-04-15T04:42:40.191Z,7.18
2023-04-15T04:43:42.904Z,8.90
2023-04-15T04:44:44.444Z,7.05
2023-04-15T04:45:47.324Z,8.05
2023-04-15T04:46:48.899Z,10.52
2023-04-15T04:47:51.748Z,8.25
2023-04-15T04:48:53.518Z,7.03
2023-04-15T04:49:57.542Z,7.18
2023-04-15T04:50:59.259Z,7.25
2023-04-15T04:52:02.601Z,7.18
2023-04-15T04:53:07.057Z,6.30
2023-04-15T04:54:09.656Z,7.55
2023-04-15T04:55:11.731Z,7.00
2023-04-15T04:56:14.220Z,7.60
2023-04-15T04:57:16.021Z,6.78
2023-04-15T04:58:18.912Z,10.85
2023-04-15T04:59:20.440Z,6.90
2023-04-15T05:00:22.926Z,7.03
2023-04-15T05:01:24.530Z,7.70
2023-04-15T05:02:27.561Z,7.90
2023-04-15T05:03:30.678Z,6.90
2023-04-15T05:04:32.273Z,7.18
2023-04-15T05:05:37.250Z,7.70
2023-04-15T05:06:38.814Z,7.40
2023-04-15T05:07:41.434Z,6.95
2023-04-15T05:08:42.945Z,7.22
2023-04-15T05:09:45.709Z,6.15
2023-04-15T05:10:47.309Z,7.95
2023-04-15T05:11:49.761Z,6.38
2023-04-15T05:12:51.949Z,7.50
2023-04-15T05:13:54.416Z,8.00
2023-04-15T05:14:55.928Z,7.00
2023-04-15T05:15:58.446Z,7.45
2023-04-15T05:16:59.973Z,7.20
2023-04-15T05:18:02.538Z,7.25
2023-04-15T05:19:04.135Z,7.53
2023-04-15T05:20:07.952Z,7.30
2023-04-15T05:21:10.862Z,7.30
2023-04-15T05:22:13.349Z,9.70
2023-04-15T05:23:15.216Z,7.15
2023-04-15T05:24:18.148Z,9.05
2023-04-15T05:25:20.261Z,7.90
2023-04-15T05:26:22.716Z,7.75
2023-04-15T05:27:24.963Z,8.90
2023-04-15T05:28:27.454Z,7.05
2023-04-15T05:29:29.176Z,7.10
2023-04-15T05:30:31.943Z,6.97
2023-04-15T05:31:33.630Z,7.70
2023-04-15T05:32:36.213Z,8.93
2023-04-15T05:33:37.820Z,7.28
2023-04-15T05:34:40.597Z,7.20
2023-04-15T05:35:42.213Z,7.07
2023-04-15T05:36:46.194Z,6.90
2023-04-15T05:37:47.695Z,6.97
2023-04-15T05:38:50.201Z,7.32
2023-04-15T05:39:52.240Z,7.65
2023-04-15T05:40:54.739Z,7.05
2023-04-15T05:41:57.639Z,8.10
2023-04-15T05:43:00.151Z,7.82
2023-04-15T05:44:01.983Z,7.60
2023-04-15T05:45:09.026Z,7.60
2023-04-15T05:46:10.587Z,7.40
2023-04-15T05:47:13.096Z,8.07
2023-04-15T05:48:14.600Z,6.97
2023-04-15T05:49:17.047Z,7.25
2023-04-15T05:50:18.788Z,6.93
2023-04-15T05:51:21.378Z,7.65
2023-04-15T05:52:24.633Z,7.07
2023-04-15T05:53:27.162Z,7.00
2023-04-15T05:54:28.750Z,7.80
2023-04-15T05:55:31.387Z,7.07
2023-04-15T05:56:33.096Z,6.93
2023-04-15T05:57:36.625Z,7.72
2023-04-15T05:58:38.155Z,7.38
2023-04-15T05:59:42.135Z,7.53
2023-04-15T06:00:44.708Z,5.88
2023-04-15T06:01:47.216Z,6.55
2023-04-15T06:02:48.960Z,6.55
2023-04-15T06:03:51.603Z,6.57
2023-04-15T06:04:53.836Z,6.35
2023-04-15T06:05:56.481Z,6.95
2023-04-15T06:06:58.041Z,8.43
2023-04-15T06:08:01.974Z,6.40
2023-04-15T06:09:03.960Z,6.25
2023-04-15T06:10:08.376Z,6.90
2023-04-15T06:11:10.876Z,9.95
2023-04-15T06:12:13.195Z,6.60
2023-04-15T06:13:16.892Z,6.45
2023-04-15T06:14:18.403Z,7.18
2023-04-15T06:15:20.942Z,6.80
2023-04-15T06:16:23.249Z,8.05
2023-04-15T06:17:28.201Z,6.75
2023-04-15T06:18:30.407Z,6.28
2023-04-15T06:19:33.348Z,6.78
2023-04-15T06:20:34.960Z,6.47
2023-04-15T06:21:37.623Z,6.07
2023-04-15T06:22:39.191Z,7.32
2023-04-15T06:23:43.080Z,6.60
2023-04-15T06:24:44.657Z,5.88
2023-04-15T06:25:47.315Z,5.95
2023-04-15T06:26:48.803Z,6.28
2023-04-15T06:27:51.492Z,6.50
2023-04-15T06:28:53.445Z,6.05
2023-04-15T06:29:55.950Z,5.50
2023-04-15T06:30:57.531Z,6.10
2023-04-15T06:32:00.573Z,5.97
2023-04-15T06:33:03.521Z,5.78
2023-04-15T06:34:06.297Z,5.95
2023-04-15T06:35:08.718Z,5.53
2023-04-15T06:36:11.186Z,5.70
2023-04-15T06:37:16.200Z,5.95
2023-04-15T06:38:18.774Z,5.75
2023-04-15T06:39:22.659Z,4.88
2023-04-15T06:40:24.311Z,5.00
2023-04-15T06:41:26.983Z,5.20
2023-04-15T06:42:28.602Z,6.93
2023-04-15T06:43:31.303Z,5.53
2023-04-15T06:44:33.914Z,5.25
2023-04-15T06:45:36.730Z,4.80
2023-04-15T06:46:38.305Z,5.28
2023-04-15T06:47:41.730Z,5.93
2023-04-15T06:48:43.354Z,4.80
2023-04-15T06:49:46.066Z,5.63
2023-04-15T06:50:47.871Z,4.65
2023-04-15T06:51:51.405Z,5.68
2023-04-15T06:52:54.914Z,4.45
2023-04-15T06:53:57.203Z,4.50
2023-04-15T06:55:02.766Z,4.22
2023-04-15T06:56:04.764Z,4.90
2023-04-15T06:57:07.817Z,4.20
2023-04-15T06:58:09.371Z,4.95
2023-04-15T06:59:11.856Z,4.38
2023-04-15T07:00:14.387Z,4.25
2023-04-15T07:01:17.203Z,3.53
2023-04-15T07:02:18.964Z,4.28
2023-04-15T07:03:21.652Z,4.75
2023-04-15T07:04:24.411Z,7.00
2023-04-15T07:05:26.413Z,5.78
2023-04-15T07:06:28.954Z,5.72
2023-04-15T07:07:30.515Z,7.80
2023-04-15T07:08:33.698Z,5.18
2023-04-15T07:09:35.305Z,4.57
2023-04-15T07:10:39.176Z,4.30
2023-04-15T07:11:40.800Z,4.50
2023-04-15T07:12:43.307Z,4.22
2023-04-15T07:13:44.803Z,4.15
2023-04-15T07:14:47.425Z,4.47
2023-04-15T07:15:49.054Z,5.68
2023-04-15T07:16:51.683Z,4.75
2023-04-15T07:17:53.330Z,5.47
2023-04-15T07:18:55.918Z,4.55
2023-04-15T07:19:57.419Z,4.40
2023-04-15T07:20:59.958Z,4.85
2023-04-15T07:22:01.557Z,5.78
2023-04-15T07:23:04.227Z,4.95
2023-04-15T07:24:06.783Z,4.45
2023-04-15T07:25:10.195Z,4.72
2023-04-15T07:26:13.097Z,4.53
2023-04-15T07:27:16.058Z,6.65
2023-04-15T07:28:18.770Z,4.47
2023-04-15T07:29:20.790Z,5.30
2023-04-15T07:30:23.406Z,4.22
2023-04-15T07:31:25.211Z,4.47
2023-04-15T07:32:27.930Z,4.78
2023-04-15T07:33:29.510Z,9.00
2023-04-15T07:34:32.751Z,5.15
2023-04-15T07:35:34.545Z,4.90
2023-04-15T07:36:37.243Z,7.32
2023-04-15T07:37:38.835Z,4.50
2023-04-15T07:38:41.670Z,4.20
2023-04-15T07:39:43.708Z,4.88
2023-04-15T07:40:47.408Z,4.32
2023-04-15T07:41:50.371Z,3.95
2023-04-15T07:42:53.066Z,5.38
2023-04-15T07:43:55.805Z,4.88
2023-04-15T07:44:57.543Z,4.72
2023-04-15T07:46:00.411Z,5.03
2023-04-15T07:47:04.035Z,4.15
2023-04-15T07:48:06.684Z,4.22
2023-04-15T07:49:09.268Z,4.05
2023-04-15T07:50:12.338Z,4.32
2023-04-15T07:51:14.904Z,4.15
2023-04-15T07:52:16.672Z,5.70
2023-04-15T07:53:24.594Z,4.80
2023-04-15T07:54:27.403Z,5.10
2023-04-15T07:55:30.602Z,5.25
2023-04-15T07:56:33.179Z,5.40
2023-04-15T07:57:36.779Z,7.20
2023-04-15T07:58:39.404Z,5.88
2023-04-15T07:59:57.238Z,7.30
2023-04-15T08:00:59.403Z,8.15
2023-04-15T08:02:02.521Z,8.75
2023-04-15T08:03:04.823Z,7.53
2023-04-15T08:04:08.319Z,8.18
2023-04-15T08:05:11.173Z,9.43
2023-04-15T08:06:15.063Z,8.20
2023-04-15T08:07:18.148Z,10.20
2023-04-15T08:08:19.713Z,9.25
2023-04-15T08:09:22.219Z,9.00
2023-04-15T08:10:25.130Z,11.02
2023-04-15T08:11:27.702Z,10.07
2023-04-15T08:12:30.292Z,11.75
2023-04-15T08:13:34.371Z,13.13
2023-04-15T08:14:36.343Z,12.13
2023-04-15T08:15:38.943Z,13.80
2023-04-15T08:16:40.860Z,14.00
2023-04-15T08:17:43.878Z,13.18
2023-04-15T08:18:45.501Z,14.73
2023-04-15T08:19:48.486Z,14.27
2023-04-15T08:20:50.100Z,13.88
2023-04-15T08:21:52.942Z,13.27
2023-04-15T08:22:54.479Z,12.30
2023-04-15T08:23:57.006Z,13.65
2023-04-15T08:24:59.594Z,13.48
2023-04-15T08:26:02.551Z,12.45
2023-04-15T08:27:05.727Z,12.60
2023-04-15T08:28:09.069Z,12.75
2023-04-15T08:29:12.920Z,13.60
2023-04-15T08:30:15.313Z,12.27
2023-04-15T08:31:19.765Z,12.45
2023-04-15T08:32:21.363Z,12.20
2023-04-15T08:33:23.939Z,13.60
2023-04-15T08:34:25.597Z,15.38
2023-04-15T08:35:28.090Z,15.52
2023-04-15T08:36:29.669Z,14.98
2023-04-15T08:37:32.177Z,17.73
2023-04-15T08:38:33.985Z,16.00
2023-04-15T08:39:36.509Z,18.25
2023-04-15T08:40:42.372Z,16.70
2023-04-15T08:41:48.768Z,16.20
2023-04-15T08:42:55.483Z,17.60
2023-04-15T08:43:58.897Z,17.92
2023-04-15T08:45:06.095Z,15.65
2023-04-15T08:46:09.556Z,17.38
2023-04-15T08:47:14.787Z,15.48
2023-04-15T08:48:17.229Z,15.75
2023-04-15T08:49:20.395Z,17.48
2023-04-15T08:50:24.626Z,16.98
2023-04-15T08:51:27.951Z,16.55
2023-04-15T08:52:31.262Z,17.92
2023-04-15T08:53:34.066Z,15.45
2023-04-15T08:54:36.506Z,14.85
2023-04-15T08:55:44.623Z,15.35
2023-04-15T08:56:47.084Z,15.80
2023-04-15T08:57:50.046Z,14.27
2023-04-15T08:58:52.579Z,15.38
2023-04-15T08:59:57.104Z,15.23
2023-04-15T09:01:00.093Z,14.80
2023-04-15T09:02:03.714Z,13.15
2023-04-15T09:03:06.702Z,13.98
2023-04-15T09:04:09.852Z,15.30
2023-04-15T09:05:11.576Z,16.00
2023-04-15T09:06:14.653Z,14.98
2023-04-15T09:07:16.447Z,14.98
2023-04-15T09:08:18.998Z,15.55
2023-04-15T09:09:20.867Z,15.00
2023-04-15T09:10:23.401Z,16.90
2023-04-15T09:11:25.019Z,14.52
2023-04-15T09:12:27.537Z,16.80
2023-04-15T09:13:29.309Z,15.02
2023-04-15T09:14:32.788Z,14.93
2023-04-15T09:15:38.668Z,12.45
2023-04-15T09:17:02.897Z,11.73
2023-04-15T09:18:04.577Z,13.18
2023-04-15T09:19:21.764Z,13.05
2023-04-15T09:20:25.011Z,10.65
2023-04-15T09:21:26.545Z,11.20
2023-04-15T09:22:33.128Z,11.65
2023-04-15T09:23:35.552Z,13.68
2023-04-15T09:24:40.838Z,13.30
2023-04-15T09:25:42.650Z,11.48
2023-04-15T09:26:45.382Z,12.50
2023-04-15T09:27:48.942Z,12.38
2023-04-15T09:28:54.631Z,11.15
2023-04-15T09:29:56.517Z,11.25
2023-04-15T09:30:59.767Z,11.63
2023-04-15T09:32:14.210Z,12.13
2023-04-15T09:33:15.855Z,13.15
2023-04-15T09:34:18.437Z,10.00
2023-04-15T09:35:22.245Z,11.98
2023-04-15T09:36:25.057Z,10.00
2023-04-15T09:37:39.374Z,10.27
2023-04-15T09:38:56.075Z,13.07
2023-04-15T09:39:57.698Z,9.00
2023-04-15T09:41:00.985Z,7.80
2023-04-15T09:42:07.205Z,6.95
2023-04-15T09:43:13.022Z,7.40
2023-04-15T09:44:24.215Z,6.95
2023-04-15T09:45:29.506Z,10.15
2023-04-15T09:46:43.108Z,8.27
2023-04-15T09:47:46.432Z,7.47
2023-04-15T09:49:08.883Z,8.82
2023-04-15T09:50:10.488Z,6.93
2023-04-15T09:51:12.976Z,6.82
2023-04-15T09:52:14.580Z,7.13
2023-04-15T09:53:19.096Z,7.65
2023-04-15T09:54:21.793Z,8.02
2023-04-15T09:55:24.501Z,9.40
2023-04-15T09:56:34.728Z,10.27
2023-04-15T09:57:38.229Z,10.32
2023-04-15T09:58:41.651Z,6.75
2023-04-15T09:59:44.211Z,8.40
2023-04-15T10:00:47.719Z,9.68
2023-04-15T10:01:50.577Z,10.18
2023-04-15T10:02:53.789Z,11.98
2023-04-15T10:03:58.409Z,11.68
2023-04-15T10:05:03.838Z,10.82
2023-04-15T10:06:06.413Z,11.23
2023-04-15T10:07:09.518Z,13.32
2023-04-15T10:08:13.367Z,11.45
2023-04-15T10:09:15.475Z,10.98
2023-04-15T10:10:18.583Z,12.98
2023-04-15T10:11:23.321Z,11.30
2023-04-15T10:12:27.137Z,12.35
2023-04-15T10:13:33.394Z,12.30
2023-04-15T10:14:39.015Z,11.27
2023-04-15T10:15:45.439Z,10.32
2023-04-15T10:16:49.899Z,10.35
2023-04-15T10:17:55.429Z,9.85
2023-04-15T10:18:59.418Z,8.65
2023-04-15T10:20:02.160Z,9.18
2023-04-15T10:21:06.751Z,10.95
2023-04-15T10:22:08.586Z,10.80
2023-04-15T10:23:13.364Z,9.30
2023-04-15T10:24:16.528Z,10.40
2023-04-15T10:25:22.981Z,8.95
2023-04-15T10:26:29.487Z,8.27
2023-04-15T10:27:32.183Z,8.55
2023-04-15T10:28:35.394Z,7.88
2023-04-15T10:29:38.784Z,9.68
2023-04-15T10:30:41.486Z,8.80
2023-04-15T10:31:44.434Z,7.43
2023-04-15T10:32:48.148Z,8.32
2023-04-15T10:33:52.723Z,9.25
2023-04-15T10:34:56.885Z,8.63
2023-04-15T10:35:59.713Z,9.68
2023-04-15T10:37:03.559Z,7.53
2023-04-15T10:38:34.176Z,8.32
2023-04-15T10:39:41.251Z,11.40
2023-04-15T10:40:45.346Z,7.93
2023-04-15T10:42:06.516Z,8.27
2023-04-15T10:43:26.402Z,8.85
2023-04-15T10:44:28.045Z,9.88
2023-04-15T10:45:34.569Z,10.07
2023-04-15T10:46:39.027Z,10.70
2023-04-15T10:47:41.658Z,8.93
2023-04-15T10:48:48.220Z,9.88
2023-04-15T10:49:53.606Z,8.45
2023-04-15T10:51:00.750Z,9.15
2023-04-15T10:52:03.834Z,9.18
2023-04-15T10:53:05.682Z,9.82
2023-04-15T10:54:14.598Z,7.93
2023-04-15T10:55:21.294Z,10.25
2023-04-15T10:56:23.369Z,10.50
2023-04-15T10:57:26.168Z,7.82
2023-04-15T10:58:42.956Z,9.45
2023-04-15T11:00:11.589Z,8.32
2023-04-15T11:01:13.443Z,8.23
2023-04-15T11:02:16.538Z,10.25
2023-04-15T11:03:35.181Z,8.95
2023-04-15T11:04:55.914Z,10.90
2023-04-15T11:05:58.729Z,7.47
2023-04-15T11:07:06.562Z,9.57
2023-04-15T11:08:15.127Z,10.38
2023-04-15T11:09:35.053Z,8.90
2023-04-15T11:10:56.201Z,10.07
2023-04-15T11:12:08.479Z,10.13
2023-04-15T11:13:17.008Z,9.25
2023-04-15T11:14:19.821Z,8.35
2023-04-15T11:15:29.787Z,9.50
2023-04-15T11:16:32.780Z,8.93
2023-04-15T11:17:34.438Z,13.40
2023-04-15T11:18:38.072Z,8.32
2023-04-15T11:19:39.810Z,9.23
2023-04-15T11:20:45.965Z,9.02
2023-04-15T11:21:53.190Z,8.82
2023-04-15T11:23:13.944Z,8.57
2023-04-15T11:24:27.122Z,10.40
2023-04-15T11:25:32.227Z,9.70
2023-04-15T11:26:35.158Z,10.13
2023-04-15T11:27:37.865Z,9.70
2023-04-15T11:28:41.837Z,8.73
2023-04-15T11:29:44.290Z,9.57
2023-04-15T11:30:46.859Z,8.70
2023-04-15T11:31:51.414Z,11.18
2023-04-15T11:32:56.695Z,10.40
2023-04-15T11:34:01.624Z,10.45
2023-04-15T11:35:03.409Z,10.15
2023-04-15T11:36:07.976Z,10.63
2023-04-15T11:37:10.171Z,10.65
2023-04-15T11:38:15.342Z,10.40
2023-04-15T11:39:17.918Z,8.75
2023-04-15T11:40:23.687Z,8.73
2023-04-15T11:41:26.216Z,11.00
2023-04-15T11:42:36.247Z,9.32
2023-04-15T11:43:45.767Z,10.30
2023-04-15T11:44:47.796Z,10.20
2023-04-15T11:45:53.627Z,9.48
2023-04-15T11:46:56.944Z,9.77
2023-04-15T11:48:07.503Z,9.75
2023-04-15T11:49:10.133Z,8.82
2023-04-15T11:50:16.615Z,12.32
2023-04-15T11:51:22.028Z,10.45
2023-04-15T11:52:25.948Z,9.45
2023-04-15T11:53:39.103Z,10.50
2023-04-15T11:54:40.816Z,12.18
2023-04-15T11:55:46.416Z,11.05
2023-04-15T11:56:52.156Z,10.50
2023-04-15T11:58:08.154Z,11.02
2023-04-15T11:59:10.668Z,11.05
2023-04-15T12:00:13.128Z,9.98
2023-04-15T12:01:15.676Z,12.27
2023-04-15T12:02:17.365Z,11.38
2023-04-15T12:03:26.572Z,10.45
2023-04-15T12:04:28.410Z,11.77
2023-04-15T12:05:32.018Z,11.68
2023-04-15T12:06:37.168Z,10.98
2023-04-15T12:07:58.053Z,10.35
2023-04-15T12:09:04.740Z,11.35
2023-04-15T12:10:07.897Z,10.55
2023-04-15T12:11:09.470Z,11.45
2023-04-15T12:12:12.765Z,10.90
2023-04-15T12:13:15.308Z,12.60
2023-04-15T12:14:23.697Z,11.45
2023-04-15T12:15:25.353Z,11.95
2023-04-15T12:16:29.647Z,10.40
2023-04-15T12:17:51.485Z,12.50
2023-04-15T12:18:56.083Z,12.75
2023-04-15T12:19:59.517Z,13.10
2023-04-15T12:21:09.159Z,12.35
2023-04-15T12:22:16.113Z,13.52
2023-04-15T12:23:19.621Z,12.65
2023-04-15T12:24:23.742Z,14.65
2023-04-15T12:25:34.635Z,14.40
2023-04-15T12:26:39.170Z,13.73
2023-04-15T12:27:41.748Z,12.70
2023-04-15T12:28:43.492Z,15.02
2023-04-15T12:29:46.177Z,14.63
2023-04-15T12:30:51.584Z,15.30
2023-04-15T12:31:55.996Z,14.40
2023-04-15T12:32:57.809Z,16.05
2023-04-15T12:34:01.708Z,14.00
2023-04-15T12:35:10.585Z,16.10
2023-04-15T12:36:12.190Z,13.48
2023-04-15T12:37:16.181Z,15.35
2023-04-15T12:38:17.827Z,16.90
2023-04-15T12:39:23.471Z,14.68
2023-04-15T12:40:25.837Z,14.38
2023-04-15T12:41:28.355Z,15.25
2023-04-15T12:42:34.309Z,14.55
2023-04-15T12:43:36.053Z,17.00
2023-04-15T12:44:40.101Z,15.93
2023-04-15T12:45:42.516Z,15.57
2023-04-15T12:46:45.311Z,16.73
2023-04-15T12:47:46.909Z,16.17
2023-04-15T12:48:49.940Z,14.68
2023-04-15T12:49:51.793Z,17.27
2023-04-15T12:50:54.298Z,15.50
2023-04-15T12:51:57.476Z,17.10
2023-04-15T12:53:01.634Z,21.20
2023-04-15T12:54:03.746Z,17.95
2023-04-15T12:55:07.690Z,20.33
2023-04-15T12:56:09.476Z,18.23
2023-04-15T12:57:12.371Z,19.42
2023-04-15T12:58:14.210Z,19.75
2023-04-15T12:59:18.513Z,17.08
2023-04-15T13:00:20.095Z,15.73
2023-04-15T13:01:23.162Z,18.33
2023-04-15T13:02:27.141Z,19.42
2023-04-15T13:03:29.852Z,17.95
2023-04-15T13:04:32.069Z,17.92
2023-04-15T13:05:36.926Z,15.90
2023-04-15T13:06:38.807Z,20.15
2023-04-15T13:07:41.574Z,17.65
2023-04-15T13:08:57.330Z,19.77
2023-04-15T13:09:59.700Z,20.08
2023-04-15T13:11:02.332Z,19.60
2023-04-15T13:12:05.548Z,18.08
2023-04-15T13:13:08.572Z,18.80
2023-04-15T13:14:11.749Z,18.63
2023-04-15T13:15:14.365Z,15.75
2023-04-15T13:16:16.940Z,16.65
2023-04-15T13:17:20.441Z,17.13
2023-04-15T13:18:23.654Z,17.33
2023-04-15T13:19:25.448Z,17.98
2023-04-15T13:20:28.157Z,17.00
2023-04-15T13:21:32.136Z,15.77
2023-04-15T13:22:34.639Z,15.18
2023-04-15T13:23:36.311Z,14.65
2023-04-15T13:24:40.974Z,17.55
2023-04-15T13:25:43.586Z,15.50
2023-04-15T13:26:46.394Z,14.20
2023-04-15T13:27:49.242Z,13.63
2023-04-15T13:28:52.254Z,14.27
2023-04-15T13:29:54.333Z,13.73
2023-04-15T13:30:57.155Z,13.60
2023-04-15T13:31:58.830Z,12.45
2023-04-15T13:33:01.407Z,12.32
2023-04-15T13:34:03.398Z,12.40
2023-04-15T13:35:06.767Z,11.40
2023-04-15T13:36:08.811Z,12.00
2023-04-15T13:37:13.951Z,12.27
2023-04-15T13:38:16.632Z,11.80
2023-04-15T13:39:18.317Z,13.45
2023-04-15T13:40:22.194Z,12.50
2023-04-15T13:41:23.751Z,12.07
2023-04-15T13:42:27.343Z,11.63
2023-04-15T13:43:30.572Z,13.00
2023-04-15T13:44:32.150Z,12.45
2023-04-15T13:45:34.649Z,14.07
2023-04-15T13:46:36.232Z,12.00
2023-04-15T13:47:39.074Z,12.23
2023-04-15T13:48:40.825Z,12.95
2023-04-15T13:49:43.514Z,12.07
2023-04-15T13:50:45.628Z,13.15
2023-04-15T13:51:48.182Z,11.88
2023-04-15T13:52:49.719Z,12.90
2023-04-15T13:53:52.676Z,12.27